Time;durP1;ratioP1;P1;durP2;ratioP2;P2;SDS_P1;SDS_P2;PMS_P1;PMS_P2;Temp;Humidity;BMP_temperature;BMP_pressure;BME280_temperature;BME280_humidity;BME280_pressure;Samples;Min_cycle;Max_cycle;Signal;HPM_P1;HPM_P2
2024/02/11 00:02:45;;;;;;;;;;;;;;;20.45;40.19;92727.97;10537293;28;1906;-58
2024/02/11 00:07:46;;;;;;;;;;;;;;;20.45;39.91;92724.56;10539396;28;1538;-59
2024/02/11 00:12:46;;;;;;;;;;;;;;;20.43;40.13;92738.06;10535118;28;1346;-58
2024/02/11 00:17:48;;;;;;;;;;;;;;;20.41;40.06;92750.81;10516472;28;1629;-58
2024/02/11 00:22:48;;;;;;;;;;;;;;;20.40;39.99;92754.56;10537107;28;1918;-58
2024/02/11 00:27:52;;;;;;;;;;;;;;;20.39;39.95;92753.03;10534269;28;2315;-58
2024/02/11 00:32:59;;;;;;;;;;;;;;;20.37;40.01;92749.97;10530270;28;1671;-58
2024/02/11 00:38:00;;;;;;;;;;;;;;;20.36;39.74;92753.69;10542557;28;1643;-58
2024/02/11 00:43:01;;;;;;;;;;;;;;;20.35;39.73;92754.03;10545199;27;1909;-60
2024/02/11 00:48:03;;;;;;;;;;;;;;;20.34;39.89;92766.44;10533121;28;1377;-58
2024/02/11 00:53:05;;;;;;;;;;;;;;;20.33;39.91;92775.44;10533184;28;1504;-58
2024/02/11 00:58:05;;;;;;;;;;;;;;;20.31;39.89;92772.41;10533014;28;1655;-59
2024/02/11 01:03:05;;;;;;;;;;;;;;;20.30;39.66;92781.38;10532780;28;1902;-59
2024/02/11 01:08:06;;;;;;;;;;;;;;;20.29;39.77;92793.03;10533232;28;1724;-59
2024/02/11 01:13:06;;;;;;;;;;;;;;;20.27;39.63;92788.09;10531789;28;1339;-59
2024/02/11 01:18:06;;;;;;;;;;;;;;;20.28;39.69;92808.03;10534992;28;1531;-59
2024/02/11 01:23:07;;;;;;;;;;;;;;;20.26;39.55;92817.34;10534715;28;2224;-59
2024/02/11 01:28:07;;;;;;;;;;;;;;;20.25;39.60;92826.38;10551479;27;1490;-59
2024/02/11 01:33:09;;;;;;;;;;;;;;;20.23;39.53;92829.34;10533337;28;1801;-59
2024/02/11 01:38:09;;;;;;;;;;;;;;;20.22;39.20;92822.53;10511931;28;1746;-59
2024/02/11 01:43:10;;;;;;;;;;;;;;;20.20;39.25;92835.28;10531848;28;1955;-59
2024/02/11 01:48:10;;;;;;;;;;;;;;;20.20;39.37;92839.75;10530017;28;1531;-59
2024/02/11 01:53:10;;;;;;;;;;;;;;;20.19;39.17;92848.75;10508784;28;1798;-59
2024/02/11 01:58:11;;;;;;;;;;;;;;;20.18;39.17;92853.22;10543787;28;1615;-59
2024/02/11 02:03:11;;;;;;;;;;;;;;;20.17;39.38;92848.31;10548184;28;1977;-59
2024/02/11 02:08:11;;;;;;;;;;;;;;;20.16;39.22;92855.44;10525590;28;1700;-59
2024/02/11 02:13:11;;;;;;;;;;;;;;;20.15;39.34;92851.28;10506996;28;1652;-59
2024/02/11 02:18:12;;;;;;;;;;;;;;;20.14;39.27;92855.00;10528373;28;2259;-59
2024/02/11 02:23:12;;;;;;;;;;;;;;;20.13;39.26;92864.00;10530399;28;1955;-59
2024/02/11 02:28:12;;;;;;;;;;;;;;;20.12;39.23;92865.09;10530183;28;1601;-59
2024/02/11 02:33:13;;;;;;;;;;;;;;;20.10;39.21;92872.56;10531776;28;1625;-59
2024/02/11 02:38:13;;;;;;;;;;;;;;;20.10;39.25;92877.84;10529708;28;1878;-59
2024/02/11 02:43:13;;;;;;;;;;;;;;;20.09;39.14;92880.81;10524848;28;1980;-59
2024/02/11 02:48:14;;;;;;;;;;;;;;;20.08;39.19;92892.41;10529855;28;1597;-59
2024/02/11 02:53:16;;;;;;;;;;;;;;;20.07;39.19;92896.91;10533808;28;1683;-59
2024/02/11 02:58:16;;;;;;;;;;;;;;;20.07;39.16;92896.16;10525275;28;1626;-59
2024/02/11 03:03:17;;;;;;;;;;;;;;;20.06;39.07;92905.13;10525203;28;1976;-59
2024/02/11 03:08:18;;;;;;;;;;;;;;;20.04;39.08;92908.13;10527665;28;1596;-59
2024/02/11 03:13:18;;;;;;;;;;;;;;;20.04;38.87;92915.22;10521935;28;1606;-60
2024/02/11 03:18:18;;;;;;;;;;;;;;;20.02;38.98;92918.19;10508009;28;2411;-59
2024/02/11 03:23:18;;;;;;;;;;;;;;;20.01;38.93;92916.66;10514740;28;1911;-58
2024/02/11 03:28:19;;;;;;;;;;;;;;;20.02;38.97;92930.59;10536899;28;1633;-59
2024/02/11 03:33:19;;;;;;;;;;;;;;;20.01;39.01;92936.97;10516978;28;2016;-59
2024/02/11 03:38:19;;;;;;;;;;;;;;;19.99;39.06;92942.53;10538847;28;1723;-59
2024/02/11 03:43:19;;;;;;;;;;;;;;;19.98;38.75;92942.88;10532601;28;1972;-59
2024/02/11 03:48:20;;;;;;;;;;;;;;;19.99;39.00;92954.94;10516427;28;1524;-58
2024/02/11 03:53:21;;;;;;;;;;;;;;;19.98;38.97;92950.75;10538242;28;1627;-60
2024/02/11 03:58:21;;;;;;;;;;;;;;;19.96;38.81;92958.22;10530611;28;1553;-59
2024/02/11 04:03:22;;;;;;;;;;;;;;;19.95;38.92;92962.72;10538610;28;1975;-59
2024/02/11 04:08:23;;;;;;;;;;;;;;;19.95;38.62;92964.56;10532913;28;1588;-58
2024/02/11 04:13:26;;;;;;;;;;;;;;;19.93;38.78;92958.88;10516243;28;2550;-59
2024/02/11 04:18:29;;;;;;;;;;;;;;;19.93;38.82;92972.03;10518767;28;1816;-56
2024/02/11 04:23:29;;;;;;;;;;;;;;;19.92;38.59;92979.16;10540671;28;1913;-58
2024/02/11 04:28:30;;;;;;;;;;;;;;;19.91;38.59;92975.00;10503655;28;1471;-58
2024/02/11 04:33:30;;;;;;;;;;;;;;;19.91;38.65;92987.38;10535937;28;5328;-56
2024/02/11 04:38:30;;;;;;;;;;;;;;;19.90;38.80;92996.38;10529488;28;1391;-59
2024/02/11 04:43:34;;;;;;;;;;;;;;;19.88;38.69;92988.81;10531805;28;1902;-59
2024/02/11 04:48:34;;;;;;;;;;;;;;;19.89;38.66;93002.72;10516422;28;1680;-58
2024/02/11 04:53:37;;;;;;;;;;;;;;;19.88;38.64;93022.22;10542595;28;1590;-58
2024/02/11 04:58:38;;;;;;;;;;;;;;;19.87;38.57;93029.34;10537977;28;1435;-59
2024/02/11 05:03:40;;;;;;;;;;;;;;;19.86;38.62;93046.22;10535011;28;1901;-58
2024/02/11 05:08:40;;;;;;;;;;;;;;;19.87;38.82;93060.88;10535000;28;1519;-58
2024/02/11 05:13:43;;;;;;;;;;;;;;;19.87;38.89;93068.00;10513504;28;1524;-58
2024/02/11 05:18:43;;;;;;;;;;;;;;;19.86;39.22;93080.41;10527064;28;1519;-59
2024/02/11 05:23:47;;;;;;;;;;;;;;;19.86;39.25;93090.91;10512797;28;1914;-59
2024/02/11 05:28:47;;;;;;;;;;;;;;;19.86;39.37;93095.41;10521488;28;1475;-59
2024/02/11 05:33:47;;;;;;;;;;;;;;;19.85;39.15;93092.00;10525534;28;1576;-59
2024/02/11 05:38:48;;;;;;;;;;;;;;;19.84;39.02;93095.75;10511049;28;1562;-58
2024/02/11 05:43:48;;;;;;;;;;;;;;;19.84;39.20;93108.09;10533418;28;1944;-59
2024/02/11 05:48:49;;;;;;;;;;;;;;;19.83;39.22;93117.84;10533441;28;1464;-58
2024/02/11 05:53:50;;;;;;;;;;;;;;;19.82;39.24;93126.06;10527394;28;1472;-60
2024/02/11 05:58:51;;;;;;;;;;;;;;;19.81;39.05;93129.78;10513710;28;1535;-58
2024/02/11 06:03:52;;;;;;;;;;;;;;;19.79;39.04;93145.13;10532785;28;1910;-59
2024/02/11 06:08:54;;;;;;;;;;;;;;;19.78;39.03;93149.63;10530720;28;1523;-58
2024/02/11 06:13:54;;;;;;;;;;;;;;;19.77;38.87;93147.31;10545269;28;1470;-58
2024/02/11 06:18:55;;;;;;;;;;;;;;;19.76;38.78;93162.34;10529105;28;2417;-59
2024/02/11 06:23:55;;;;;;;;;;;;;;;19.73;38.83;93170.09;10511202;28;1894;-58
2024/02/11 06:28:55;;;;;;;;;;;;;;;19.74;38.76;93185.53;10509315;28;1690;-59
2024/02/11 06:33:56;;;;;;;;;;;;;;;19.74;38.69;93203.19;10527680;28;1672;-59
2024/02/11 06:38:59;;;;;;;;;;;;;;;19.72;38.42;93218.53;10514136;28;1491;-58
2024/02/11 06:44:03;;;;;;;;;;;;;;;19.71;38.47;93223.00;10531883;28;1950;-58
2024/02/11 06:49:04;;;;;;;;;;;;;;;19.69;38.49;93235.72;10530709;28;1451;-59
2024/02/11 06:54:06;;;;;;;;;;;;;;;19.68;38.34;93239.41;10532961;28;1476;-59
2024/02/11 06:59:06;;;;;;;;;;;;;;;19.67;38.41;93252.88;10528817;28;1464;-59
2024/02/11 07:04:08;;;;;;;;;;;;;;;19.67;38.23;93263.41;10539344;28;1988;-59
2024/02/11 07:09:10;;;;;;;;;;;;;;;19.63;38.31;93265.16;10539501;28;1519;-59
2024/02/11 07:14:11;;;;;;;;;;;;;;;19.65;38.37;93281.34;10538785;28;1420;-60
2024/02/11 07:19:12;;;;;;;;;;;;;;;19.63;38.23;93278.28;10537754;28;1576;-59
2024/02/11 07:24:12;;;;;;;;;;;;;;;19.63;38.04;93302.72;10534795;28;2394;-58
2024/02/11 07:29:12;;;;;;;;;;;;;;;19.61;38.24;93327.78;10530237;28;1529;-59
2024/02/11 07:34:13;;;;;;;;;;;;;;;19.59;38.05;93320.22;10519888;28;1658;-59
2024/02/11 07:39:17;;;;;;;;;;;;;;;19.59;38.22;93333.38;10550991;28;1641;-58
2024/02/11 07:44:17;;;;;;;;;;;;;;;19.58;38.00;93331.06;10518737;28;1977;-58
2024/02/11 07:49:17;;;;;;;;;;;;;;;19.57;37.86;93340.03;10539351;28;1483;-59
2024/02/11 07:54:23;;;;;;;;;;;;;;;19.57;37.84;93353.16;10534463;28;1503;-59
2024/02/11 07:59:23;;;;;;;;;;;;;;;19.54;38.19;93356.47;10517671;28;1417;-59
2024/02/11 08:04:24;;;;;;;;;;;;;;;19.54;37.99;93377.47;10536274;28;1909;-59
2024/02/11 08:09:24;;;;;;;;;;;;;;;19.53;37.94;93387.22;10532871;28;1530;-59
2024/02/11 08:14:24;;;;;;;;;;;;;;;19.52;37.99;93388.28;10537606;28;1444;-59
2024/02/11 08:19:24;;;;;;;;;;;;;;;19.48;37.89;93387.41;10536445;28;2395;-59
2024/02/11 08:24:25;;;;;;;;;;;;;;;19.50;37.93;93377.34;10536052;28;1918;-59
2024/02/11 08:29:25;;;;;;;;;;;;;;;19.48;37.83;93393.44;10533037;28;1487;-58
2024/02/11 08:34:26;;;;;;;;;;;;;;;19.47;37.67;93402.38;10528808;28;1569;-59
2024/02/11 08:39:27;;;;;;;;;;;;;;;19.47;37.75;93407.66;10534239;28;1662;-59
2024/02/11 08:44:27;;;;;;;;;;;;;;;19.45;37.77;93422.22;10530581;28;1902;-59
2024/02/11 08:49:28;;;;;;;;;;;;;;;19.45;37.67;93428.22;10550346;28;1460;-59
2024/02/11 08:54:34;;;;;;;;;;;;;;;19.44;37.61;93418.81;10536739;28;1560;-59
2024/02/11 08:59:35;;;;;;;;;;;;;;;19.43;37.52;93427.78;10528788;28;1857;-59
2024/02/11 09:04:35;;;;;;;;;;;;;;;19.42;37.51;93436.75;10515603;28;1917;-59
2024/02/11 09:09:35;;;;;;;;;;;;;;;19.43;37.62;93453.28;10527315;28;1409;-59
2024/02/11 09:14:39;;;;;;;;;;;;;;;19.40;37.58;93444.19;10515428;28;2425;-59
2024/02/11 09:19:39;;;;;;;;;;;;;;;19.39;37.59;93462.91;10532953;28;1444;-59
2024/02/11 09:24:41;;;;;;;;;;;;;;;19.39;37.49;93468.91;10527511;28;1902;-59
2024/02/11 09:29:41;;;;;;;;;;;;;;;19.38;37.58;93472.63;10533215;28;1630;-59
2024/02/11 09:34:41;;;;;;;;;;;;;;;19.38;37.33;93482.38;10533868;28;1600;-59
2024/02/11 09:39:42;;;;;;;;;;;;;;;19.36;37.41;93480.06;10533010;28;1471;-58
2024/02/11 09:44:43;;;;;;;;;;;;;;;19.36;37.42;93492.44;10531395;28;1961;-59
2024/02/11 09:49:45;;;;;;;;;;;;;;;19.35;37.57;93489.03;10534941;28;1554;-59
2024/02/11 09:54:46;;;;;;;;;;;;;;;19.34;37.65;93498.00;10510945;28;1476;-59
2024/02/11 09:59:47;;;;;;;;;;;;;;;19.34;37.65;93503.25;10531030;28;1483;-59
2024/02/11 10:04:47;;;;;;;;;;;;;;;19.33;37.54;93512.22;10531586;28;1913;-59
2024/02/11 10:09:47;;;;;;;;;;;;;;;19.32;37.68;93521.19;10529608;28;2424;-59
2024/02/11 10:14:54;;;;;;;;;;;;;;;19.32;37.60;93525.66;10529742;28;1605;-59
2024/02/11 10:19:54;;;;;;;;;;;;;;;19.31;37.66;93532.75;10529408;28;1784;-60
2024/02/11 10:24:55;;;;;;;;;;;;;;;19.31;37.48;93542.50;10534115;28;1965;-58
2024/02/11 10:29:55;;;;;;;;;;;;;;;19.29;37.53;93542.03;10534547;28;1462;-59
2024/02/11 10:35:01;;;;;;;;;;;;;;;19.28;37.65;93549.16;10537364;28;1686;-59
2024/02/11 10:40:03;;;;;;;;;;;;;;;19.27;37.76;93550.25;10524071;28;1482;-59
2024/02/11 10:45:04;;;;;;;;;;;;;;;19.26;37.44;93553.97;10538756;28;1906;-59
2024/02/11 10:50:04;;;;;;;;;;;;;;;19.26;37.59;93547.94;10543083;28;1475;-59
2024/02/11 10:55:06;;;;;;;;;;;;;;;19.25;37.59;93547.16;10539790;28;1891;-58
2024/02/11 11:00:07;;;;;;;;;;;;;;;19.24;37.53;93550.88;10540954;28;1646;-58
2024/02/11 11:05:08;;;;;;;;;;;;;;;19.24;37.73;93555.38;10554979;28;1980;-59
2024/02/11 11:10:10;;;;;;;;;;;;;;;19.23;37.71;93551.19;10534874;28;2410;-59
2024/02/11 11:15:11;;;;;;;;;;;;;;;19.22;37.56;93552.28;10539308;28;1640;-60
2024/02/11 11:20:12;;;;;;;;;;;;;;;19.21;37.55;93556.75;10535708;28;1669;-59
2024/02/11 11:25:14;;;;;;;;;;;;;;;19.20;37.57;93550.00;10538386;28;1913;-58
2024/02/11 11:30:14;;;;;;;;;;;;;;;19.19;37.79;93551.06;10539946;28;1528;-58
2024/02/11 11:35:15;;;;;;;;;;;;;;;19.19;37.53;93550.28;10518238;28;1689;-58
2024/02/11 11:40:16;;;;;;;;;;;;;;;19.18;37.75;93554.78;10549804;28;1575;-58
2024/02/11 11:45:17;;;;;;;;;;;;;;;19.18;37.71;93556.63;10517376;28;1910;-58
2024/02/11 11:50:20;;;;;;;;;;;;;;;19.16;37.57;93549.09;10520169;28;2460;-59
2024/02/11 11:55:20;;;;;;;;;;;;;;;19.15;37.60;93552.78;10536546;28;1492;-59
2024/02/11 12:00:21;;;;;;;;;;;;;;;19.14;37.49;93556.50;10550537;28;1661;-58
2024/02/11 12:05:21;;;;;;;;;;;;;;;19.14;37.58;93561.75;10538913;28;1910;-59
2024/02/11 12:10:22;;;;;;;;;;;;;;;19.14;37.82;93561.75;10536253;28;1396;-59
2024/02/11 12:15:23;;;;;;;;;;;;;;;19.13;37.63;93557.56;10548349;28;1551;-60
2024/02/11 12:20:23;;;;;;;;;;;;;;;19.11;37.64;93556.34;10529194;28;1870;-59
2024/02/11 12:25:24;;;;;;;;;;;;;;;19.12;37.85;93558.69;10535461;28;1975;-59
2024/02/11 12:30:25;;;;;;;;;;;;;;;19.11;37.55;93561.59;10513586;28;1490;-59
2024/02/11 12:35:29;;;;;;;;;;;;;;;19.09;37.71;93569.81;10547326;28;2219;-59
2024/02/11 12:40:29;;;;;;;;;;;;;;;19.10;37.70;93570.59;10515671;28;1575;-58
2024/02/11 12:45:29;;;;;;;;;;;;;;;19.10;37.82;93567.94;10512579;28;1913;-59
2024/02/11 12:50:29;;;;;;;;;;;;;;;19.07;37.89;93569.34;10530141;28;1662;-59
2024/02/11 12:55:30;;;;;;;;;;;;;;;19.07;37.50;93571.97;10532979;28;1519;-59
2024/02/11 13:00:33;;;;;;;;;;;;;;;19.06;37.65;93570.41;10529038;28;1503;-59
2024/02/11 13:05:33;;;;;;;;;;;;;;;19.05;37.68;93574.16;10530522;28;1959;-59
2024/02/11 13:10:33;;;;;;;;;;;;;;;19.02;37.59;93574.75;10528668;28;1480;-59
2024/02/11 13:15:35;;;;;;;;;;;;;;;19.03;37.74;93581.56;10532803;28;1378;-59
2024/02/11 13:20:42;;;;;;;;;;;;;;;19.03;37.66;93584.19;10576591;27;1471;-60
2024/02/11 13:25:44;;;;;;;;;;;;;;;19.01;37.92;93583.75;10553721;28;1488;-60
2024/02/11 13:30:45;;;;;;;;;;;;;;;19.02;37.65;93600.28;10543250;28;1533;-60
2024/02/11 13:35:46;;;;;;;;;;;;;;;19.00;37.53;93602.44;10548320;28;1927;-58
2024/02/11 13:40:46;;;;;;;;;;;;;;;19.00;37.83;93613.69;10549950;28;1436;-57
2024/02/11 13:45:46;;;;;;;;;;;;;;;19.00;37.67;93618.19;10550135;28;1730;-58
2024/02/11 13:50:47;;;;;;;;;;;;;;;18.98;37.71;93601.97;10551741;28;1587;-58
2024/02/11 13:55:47;;;;;;;;;;;;;;;18.98;37.47;93620.38;10547462;28;1971;-59
2024/02/11 14:00:47;;;;;;;;;;;;;;;18.97;37.65;93619.59;10555099;28;1508;-61
2024/02/11 14:05:48;;;;;;;;;;;;;;;18.97;37.54;93614.34;10553664;28;1822;-58
2024/02/11 14:10:48;;;;;;;;;;;;;;;18.95;37.61;93623.59;10546651;28;1429;-58
2024/02/11 14:15:49;;;;;;;;;;;;;;;18.95;37.46;93620.97;10553980;28;2308;-58
2024/02/11 14:20:53;;;;;;;;;;;;;;;18.94;37.57;93625.44;10557376;28;1505;-59
2024/02/11 14:25:56;;;;;;;;;;;;;;;18.94;37.59;93628.06;10541366;28;1524;-59
2024/02/11 14:31:00;;;;;;;;;;;;;;;18.93;37.48;93628.41;10512512;28;1920;-58
2024/02/11 14:36:00;;;;;;;;;;;;;;;18.92;37.45;93637.38;10510971;28;1914;-59
2024/02/11 14:41:01;;;;;;;;;;;;;;;18.92;37.40;93643.38;10529588;28;1587;-59
2024/02/11 14:46:05;;;;;;;;;;;;;;;18.91;37.53;93641.84;10513634;28;1694;-59
2024/02/11 14:51:06;;;;;;;;;;;;;;;18.90;37.40;93650.78;10529909;28;1445;-59
2024/02/11 14:56:06;;;;;;;;;;;;;;;18.91;37.48;93654.19;10510379;28;2441;-58
2024/02/11 15:01:08;;;;;;;;;;;;;;;18.90;37.42;93650.03;10506738;28;1564;-59
2024/02/11 15:06:11;;;;;;;;;;;;;;;18.89;37.55;93658.97;10520630;28;1798;-59
2024/02/11 15:11:13;;;;;;;;;;;;;;;18.88;37.56;93666.09;10517830;28;1697;-59
2024/02/11 15:16:13;;;;;;;;;;;;;;;18.87;37.46;93663.78;10511746;28;1886;-59
2024/02/11 15:21:14;;;;;;;;;;;;;;;18.87;37.36;93675.06;10520046;28;1762;-59
2024/02/11 15:26:16;;;;;;;;;;;;;;;18.86;37.47;93678.75;10506303;28;1619;-59
2024/02/11 15:31:16;;;;;;;;;;;;;;;18.85;37.58;93671.19;10517866;28;1494;-58
2024/02/11 15:36:17;;;;;;;;;;;;;;;18.84;37.51;93678.28;10515618;28;1984;-59
2024/02/11 15:41:17;;;;;;;;;;;;;;;18.83;37.38;93678.59;10527286;28;1549;-59
2024/02/11 15:46:17;;;;;;;;;;;;;;;18.83;37.49;93681.22;10515075;28;1569;-59
2024/02/11 15:51:17;;;;;;;;;;;;;;;18.81;37.36;93686.03;10523065;28;2158;-59
2024/02/11 15:56:19;;;;;;;;;;;;;;;18.80;37.59;93689.72;10517258;28;1909;-59
2024/02/11 16:01:19;;;;;;;;;;;;;;;18.80;37.41;93698.38;10514730;28;1500;-59
2024/02/11 16:06:19;;;;;;;;;;;;;;;18.79;37.16;93707.34;10512193;28;1532;-59
2024/02/11 16:11:20;;;;;;;;;;;;;;;18.78;37.36;93713.66;10509169;28;1488;-59
2024/02/11 16:16:21;;;;;;;;;;;;;;;18.78;37.58;93711.03;10515165;28;1977;-59
2024/02/11 16:21:21;;;;;;;;;;;;;;;18.78;37.25;93721.53;10516664;28;1488;-59
2024/02/11 16:26:24;;;;;;;;;;;;;;;18.76;37.40;93723.69;10516775;28;1654;-59
2024/02/11 16:31:24;;;;;;;;;;;;;;;18.76;37.41;93723.69;10510953;28;1636;-59
2024/02/11 16:36:24;;;;;;;;;;;;;;;18.76;37.62;93733.41;10510806;28;2287;-59
2024/02/11 16:41:24;;;;;;;;;;;;;;;18.75;37.55;93737.13;10510673;28;1528;-59
2024/02/11 16:46:25;;;;;;;;;;;;;;;18.73;37.65;93745.31;10514284;28;1566;-59
2024/02/11 16:51:25;;;;;;;;;;;;;;;18.74;37.29;93746.06;10519827;28;1581;-59
2024/02/11 16:56:27;;;;;;;;;;;;;;;18.72;37.64;93759.50;10514539;28;1914;-59
2024/02/11 17:01:27;;;;;;;;;;;;;;;18.72;37.35;93767.38;10509265;28;1559;-60
2024/02/11 17:06:33;;;;;;;;;;;;;;;18.70;37.36;93769.53;10511084;28;1522;-59
2024/02/11 17:11:33;;;;;;;;;;;;;;;18.72;37.51;93783.13;10513372;28;1645;-59
2024/02/11 17:16:36;;;;;;;;;;;;;;;18.70;37.58;93787.91;10514181;28;2115;-59
2024/02/11 17:21:36;;;;;;;;;;;;;;;18.69;37.49;93799.50;10511425;28;1591;-59
2024/02/11 17:26:37;;;;;;;;;;;;;;;18.66;37.54;93803.53;10514374;28;1449;-59
2024/02/11 17:31:40;;;;;;;;;;;;;;;18.66;37.66;93815.84;10508046;28;1664;-59
2024/02/11 17:36:42;;;;;;;;;;;;;;;18.67;37.32;93820.00;10513141;28;1963;-59
2024/02/11 17:41:43;;;;;;;;;;;;;;;18.66;37.36;93821.88;10513360;28;1596;-59
2024/02/11 17:46:43;;;;;;;;;;;;;;;18.65;37.60;93827.41;10509930;28;1682;-60
2024/02/11 17:51:43;;;;;;;;;;;;;;;18.63;37.48;93829.59;10514240;28;1509;-59
2024/02/11 17:56:44;;;;;;;;;;;;;;;18.63;37.34;93838.22;10516193;28;1957;-60
2024/02/11 18:01:45;;;;;;;;;;;;;;;18.62;37.47;93844.56;10514861;28;2638;-59
2024/02/11 18:06:45;;;;;;;;;;;;;;;18.63;37.55;93842.69;10503551;28;1481;-59
2024/02/11 18:11:46;;;;;;;;;;;;;;;18.62;37.56;93843.78;10527684;28;1647;-58
2024/02/11 18:16:47;;;;;;;;;;;;;;;18.61;37.38;93845.63;10514420;28;1910;-59
2024/02/11 18:21:49;;;;;;;;;;;;;;;18.60;37.49;93843.31;10527980;28;1510;-59
2024/02/11 18:26:49;;;;;;;;;;;;;;;18.59;37.56;93847.78;10523364;28;1508;-59
2024/02/11 18:31:53;;;;;;;;;;;;;;;18.59;37.67;93855.66;10529806;28;1641;-59
2024/02/11 18:36:54;;;;;;;;;;;;;;;18.58;37.51;93856.75;10521529;28;1905;-59
2024/02/11 18:41:54;;;;;;;;;;;;;;;18.57;37.36;93868.31;10525195;28;1493;-59
2024/02/11 18:46:55;;;;;;;;;;;;;;;18.57;37.44;93878.03;10515670;28;2310;-59
2024/02/11 18:51:55;;;;;;;;;;;;;;;18.56;37.48;93872.03;10513079;28;1532;-59
2024/02/11 18:56:56;;;;;;;;;;;;;;;18.55;37.14;93870.47;10511757;28;1926;-59
2024/02/11 19:01:56;;;;;;;;;;;;;;;18.55;37.58;93874.94;10516867;28;1872;-61
2024/02/11 19:06:58;;;;;;;;;;;;;;;18.54;37.61;93876.81;10521543;28;1441;-58
2024/02/11 19:11:59;;;;;;;;;;;;;;;18.53;37.45;93885.75;10518688;28;1681;-59
2024/02/11 19:16:59;;;;;;;;;;;;;;;18.53;37.43;93887.59;10513640;28;1918;-59
2024/02/11 19:22:00;;;;;;;;;;;;;;;18.52;37.24;93886.06;10520759;28;1472;-59
2024/02/11 19:27:00;;;;;;;;;;;;;;;18.52;37.45;93896.56;10516102;28;1753;-60
2024/02/11 19:32:00;;;;;;;;;;;;;;;18.50;37.61;93911.84;10515611;28;1585;-60
2024/02/11 19:37:01;;;;;;;;;;;;;;;18.50;37.31;93909.22;10517948;28;1992;-59
2024/02/11 19:42:02;;;;;;;;;;;;;;;18.49;37.44;93916.31;10517163;28;2475;-60
2024/02/11 19:47:03;;;;;;;;;;;;;;;18.47;37.44;93921.09;10511814;28;1687;-60
2024/02/11 19:52:06;;;;;;;;;;;;;;;18.47;37.23;93925.53;10507886;28;1508;-60
2024/02/11 19:57:08;;;;;;;;;;;;;;;18.46;37.49;93930.03;10520840;28;2001;-60
2024/02/11 20:02:08;;;;;;;;;;;;;;;18.45;37.43;93930.31;10513101;28;1429;-60
2024/02/11 20:07:08;;;;;;;;;;;;;;;18.44;37.32;93934.78;10515924;28;1464;-60
2024/02/11 20:12:09;;;;;;;;;;;;;;;18.45;37.18;93953.94;10519698;28;2001;-61
2024/02/11 20:17:09;;;;;;;;;;;;;;;18.44;37.34;93952.41;10518393;28;1910;-60
2024/02/11 20:22:11;;;;;;;;;;;;;;;18.43;37.51;93963.94;10518789;28;1473;-60
2024/02/11 20:27:11;;;;;;;;;;;;;;;18.42;37.26;93972.88;10514116;28;1377;-60
2024/02/11 20:32:12;;;;;;;;;;;;;;;18.43;37.45;93977.03;10513824;28;2327;-59
2024/02/11 20:37:12;;;;;;;;;;;;;;;18.41;37.19;93987.06;10517866;28;1976;-59
2024/02/11 20:42:13;;;;;;;;;;;;;;;18.40;37.46;93988.16;10519172;28;1379;-60
2024/02/11 20:47:14;;;;;;;;;;;;;;;18.39;37.49;93997.09;10511606;28;1845;-60
2024/02/11 20:52:14;;;;;;;;;;;;;;;18.38;37.07;93996.31;10514749;28;1473;-60
2024/02/11 20:57:14;;;;;;;;;;;;;;;18.37;37.04;94000.03;10519527;28;1914;-60
2024/02/11 21:02:17;;;;;;;;;;;;;;;18.37;36.99;94007.09;10525328;28;1634;-60
2024/02/11 21:07:19;;;;;;;;;;;;;;;18.37;36.42;94007.09;10506691;28;1489;-60
2024/02/11 21:12:20;;;;;;;;;;;;;;;18.36;36.89;94008.94;10518255;28;1633;-60
2024/02/11 21:17:20;;;;;;;;;;;;;;;18.35;36.60;94025.00;10509527;28;1966;-60
2024/02/11 21:22:22;;;;;;;;;;;;;;;18.34;36.75;94021.59;10514842;28;1856;-59
2024/02/11 21:27:23;;;;;;;;;;;;;;;18.34;36.75;94020.84;10515734;28;2465;-59
2024/02/11 21:32:23;;;;;;;;;;;;;;;18.33;36.83;94027.16;10511417;28;1581;-59
2024/02/11 21:37:25;;;;;;;;;;;;;;;18.33;36.43;94021.91;10512076;28;1890;-59
2024/02/11 21:42:26;;;;;;;;;;;;;;;18.32;36.36;94034.22;10515152;28;1661;-59
2024/02/11 21:47:27;;;;;;;;;;;;;;;18.31;36.37;94031.91;10521204;28;1558;-60
2024/02/11 21:52:30;;;;;;;;;;;;;;;18.31;36.47;94042.41;10527174;28;1507;-60
2024/02/11 21:57:30;;;;;;;;;;;;;;;18.31;36.21;94047.66;10524673;28;1983;-62
2024/02/11 22:02:30;;;;;;;;;;;;;;;18.30;36.34;94054.00;10522617;28;1513;-60
2024/02/11 22:07:31;;;;;;;;;;;;;;;18.29;36.22;94060.28;10514327;28;2404;-62
2024/02/11 22:12:32;;;;;;;;;;;;;;;18.26;36.27;94050.41;10518720;28;1410;-59
2024/02/11 22:17:32;;;;;;;;;;;;;;;18.28;36.50;94058.75;10520642;28;1914;-59
2024/02/11 22:22:32;;;;;;;;;;;;;;;18.27;36.17;94052.72;10517224;28;1402;-60
2024/02/11 22:27:33;;;;;;;;;;;;;;;18.26;36.20;94051.16;10515378;28;1534;-59
2024/02/11 22:32:33;;;;;;;;;;;;;;;18.25;36.42;94064.59;10517701;28;1735;-59
2024/02/11 22:37:33;;;;;;;;;;;;;;;18.25;36.05;94062.75;10517173;28;1906;-59
2024/02/11 22:42:34;;;;;;;;;;;;;;;18.24;36.10;94063.03;10524143;28;1566;-60
2024/02/11 22:47:34;;;;;;;;;;;;;;;18.23;36.27;94066.75;10510966;28;1474;-59
2024/02/11 22:52:35;;;;;;;;;;;;;;;18.24;35.97;94078.75;10521861;28;1464;-59
2024/02/11 22:57:36;;;;;;;;;;;;;;;18.22;36.00;94073.03;10527737;28;1935;-60
2024/02/11 23:02:37;;;;;;;;;;;;;;;18.21;36.07;94074.13;10517454;28;1464;-59
2024/02/11 23:07:37;;;;;;;;;;;;;;;18.21;35.91;94082.78;10517028;28;2293;-59
2024/02/11 23:12:38;;;;;;;;;;;;;;;18.20;35.90;94081.22;10516040;28;1536;-59
2024/02/11 23:17:39;;;;;;;;;;;;;;;18.20;35.79;94088.28;10522471;28;1962;-59
2024/02/11 23:22:43;;;;;;;;;;;;;;;18.19;35.93;94086.75;10519703;28;1630;-59
2024/02/11 23:27:44;;;;;;;;;;;;;;;18.18;35.83;94090.44;10518517;28;1484;-59
2024/02/11 23:32:45;;;;;;;;;;;;;;;18.17;35.84;94099.41;10513447;28;1512;-60
2024/02/11 23:37:45;;;;;;;;;;;;;;;18.16;35.89;94095.22;10518115;28;1921;-59
2024/02/11 23:42:45;;;;;;;;;;;;;;;18.15;35.84;94096.31;10517959;28;1507;-60
2024/02/11 23:47:47;;;;;;;;;;;;;;;18.15;35.85;94096.31;10513981;28;1488;-59
2024/02/11 23:52:47;;;;;;;;;;;;;;;18.15;35.69;94101.53;10516054;28;1460;-59
2024/02/11 23:57:48;;;;;;;;;;;;;;;18.13;35.79;94104.47;10506889;28;1909;-59
